aviador You're here:

RKNY Decoded Metar

YANGKU in KOREA
Report Time2018-02-20 13:00:00
UTC Time2018-02-20 13:50:58
Flight Rules vfr VFR
Wind260° at 10 kt
W.Decomp.*RWY 33: 4.5 kt HW 8.9 kt LCW
W.Rank260° ranks 1
Current wind is above 260° avg. (9.2)
Visibility9999 m
Phenomena:N/A
Clouds:N/A
Expected CloudBase > 8,400 ft AGL from Temp-Dew spread
CeilingNone
Temp03°C (ISA -12)
Dew Point-18°C (20% RH)
AAT-4.1°C
QNH1019 hPa
Density Alt-1,335 ft
Elevation243 ft
Report Wrong Elevation
Raw Report
RKNY 201300Z 26010KT CAVOK 03/M18 Q1019 NOSIG=

Extra information for RKNY:More info

Metar Taf Metar & Taf Last 4 Metars F.Rules Stats Wind Profile Meteogram Temp Stats Airport Information Weather charts Add Link Nearby VenuesMetar ALERT Operation Metar Decoded Social comments